Time;durP1;ratioP1;P1;durP2;ratioP2;P2;SDS_P1;SDS_P2;PMS_P1;PMS_P2;Temp;Humidity;BMP_temperature;BMP_pressure;BME280_temperature;BME280_humidity;BME280_pressure;Samples;Min_cycle;Max_cycle;Signal;HPM_P1;HPM_P2
2024/04/05 00:01:33;;;;;;;8.73;2.93;;;;;;;;;;4994210;28;20427;-86
2024/04/05 00:04:03;;;;;;;9.37;2.43;;;;;;;;;;4994623;28;20473;-88
2024/04/05 00:06:29;;;;;;;8.57;1.90;;;;;;;;;;4994701;28;20420;-83
2024/04/05 00:08:55;;;;;;;7.90;2.03;;;;;;;;;;4994760;28;20421;-79
2024/04/05 00:11:21;;;;;;;10.30;2.83;;;;;;;;;;4993441;28;20474;-79
2024/04/05 00:13:47;;;;;;;6.57;3.20;;;;;;;;;;4994531;28;20642;-80
2024/04/05 00:16:13;;;;;;;10.10;2.67;;;;;;;;;;4994041;28;20182;-85
2024/04/05 00:18:39;;;;;;;11.43;1.97;;;;;;;;;;4994510;28;20811;-78
2024/04/05 00:21:05;;;;;;;15.00;2.20;;;;;;;;;;4994516;28;20773;-78
2024/04/05 00:23:31;;;;;;;8.30;1.13;;;;;;;;;;4993192;28;20471;-80
2024/04/05 00:26:01;;;;;;;7.27;1.67;;;;;;;;;;4994411;28;20758;-79
2024/04/05 00:28:27;;;;;;;10.83;2.37;;;;;;;;;;4994493;28;20776;-78
2024/04/05 00:30:53;;;;;;;6.00;2.07;;;;;;;;;;4994469;28;20768;-78
2024/04/05 00:33:19;;;;;;;10.23;2.03;;;;;;;;;;4982057;28;20432;-86
2024/04/05 00:35:52;;;;;;;13.47;2.30;;;;;;;;;;4974926;28;20914;-79
2024/04/05 00:38:19;;;;;;;7.10;1.87;;;;;;;;;;4973785;28;20888;-84
2024/04/05 00:40:46;;;;;;;9.40;3.33;;;;;;;;;;4974798;28;20406;-79
2024/04/05 00:43:12;;;;;;;11.70;3.43;;;;;;;;;;4974720;28;20802;-86
2024/04/05 00:45:38;;;;;;;14.87;2.57;;;;;;;;;;4974481;28;20466;-78
2024/04/05 00:48:05;;;;;;;8.10;2.90;;;;;;;;;;4974345;28;20422;-78
2024/04/05 00:50:31;;;;;;;8.57;1.63;;;;;;;;;;4974623;28;20425;-78
2024/04/05 00:52:58;;;;;;;8.40;1.97;;;;;;;;;;4974601;28;20445;-78
2024/04/05 00:55:25;;;;;;;8.73;2.20;;;;;;;;;;4974508;28;20476;-78
2024/04/05 00:57:51;;;;;;;5.87;1.73;;;;;;;;;;4973974;28;20437;-79
2024/04/05 01:00:18;;;;;;;13.70;2.50;;;;;;;;;;4974453;28;20910;-78
2024/04/05 01:02:45;;;;;;;9.43;1.70;;;;;;;;;;4973943;28;20990;-79
2024/04/05 01:05:12;;;;;;;12.27;2.23;;;;;;;;;;4974398;28;20413;-79
2024/04/05 01:07:38;;;;;;;11.80;2.40;;;;;;;;;;4974409;28;20426;-78
2024/04/05 01:10:05;;;;;;;12.63;1.83;;;;;;;;;;4974294;28;20436;-78
2024/04/05 01:12:30;;;;;;;8.63;2.67;;;;;;;;;;4974219;28;20402;-78
2024/04/05 01:14:56;;;;;;;13.90;2.30;;;;;;;;;;4974247;28;20405;-78
2024/04/05 01:17:22;;;;;;;13.07;2.90;;;;;;;;;;4974041;28;20639;-77
2024/04/05 01:19:51;;;;;;;19.00;2.80;;;;;;;;;;4974185;28;20181;-78
2024/04/05 01:22:17;;;;;;;11.57;2.60;;;;;;;;;;4974297;28;20559;-78
2024/04/05 01:24:43;;;;;;;8.17;1.63;;;;;;;;;;4973008;28;20435;-77
2024/04/05 01:27:09;;;;;;;12.60;2.50;;;;;;;;;;4974231;28;20422;-77
2024/04/05 01:29:35;;;;;;;6.83;1.67;;;;;;;;;;4974223;28;20173;-78
2024/04/05 01:32:01;;;;;;;13.23;3.07;;;;;;;;;;4973877;28;20181;-77
2024/04/05 01:34:27;;;;;;;10.20;2.60;;;;;;;;;;4974241;28;20488;-78
2024/04/05 01:36:53;;;;;;;13.43;3.30;;;;;;;;;;4974120;28;20487;-78
2024/04/05 01:39:20;;;;;;;11.90;3.40;;;;;;;;;;4974108;28;20427;-79
2024/04/05 01:41:46;;;;;;;15.10;4.30;;;;;;;;;;4973998;28;20171;-77
2024/04/05 01:44:12;;;;;;;12.90;4.80;;;;;;;;;;4981620;28;20550;-80
2024/04/05 01:46:38;;;;;;;13.23;3.17;;;;;;;;;;4992973;28;20524;-77
2024/04/05 01:49:04;;;;;;;8.90;3.33;;;;;;;;;;4993371;28;20423;-78
2024/04/05 01:51:30;;;;;;;8.87;2.50;;;;;;;;;;4993428;28;20413;-79
2024/04/05 01:53:55;;;;;;;13.73;2.90;;;;;;;;;;4993457;28;20169;-78
2024/04/05 01:56:21;;;;;;;9.57;2.37;;;;;;;;;;4993351;28;20909;-79
2024/04/05 01:58:47;;;;;;;10.83;3.23;;;;;;;;;;4992737;28;20174;-78
2024/04/05 02:01:13;;;;;;;10.27;3.17;;;;;;;;;;4993047;28;20543;-78
2024/04/05 02:03:39;;;;;;;10.33;1.77;;;;;;;;;;4993292;28;20467;-78
2024/04/05 02:06:11;;;;;;;12.47;2.20;;;;;;;;;;4993295;28;20407;-78
2024/04/05 02:08:37;;;;;;;10.20;3.17;;;;;;;;;;4994678;28;20508;-78
2024/04/05 02:11:03;;;;;;;14.77;4.60;;;;;;;;;;4996868;28;20476;-79
2024/04/05 02:13:29;;;;;;;10.07;2.93;;;;;;;;;;4996777;28;20428;-78
2024/04/05 02:15:55;;;;;;;15.60;4.27;;;;;;;;;;4996756;28;20422;-77
2024/04/05 02:18:21;;;;;;;9.50;3.20;;;;;;;;;;4996823;28;20478;-78
2024/04/05 02:20:57;;;;;;;10.73;2.43;;;;;;;;;;4996568;28;20973;-78
2024/04/05 02:23:23;;;;;;;16.07;4.07;;;;;;;;;;4996564;28;20482;-78
2024/04/05 02:25:50;;;;;;;16.30;3.10;;;;;;;;;;4996562;28;20412;-79
2024/04/05 02:28:16;;;;;;;11.50;3.20;;;;;;;;;;4996445;28;20841;-78
2024/04/05 02:30:42;;;;;;;14.50;3.40;;;;;;;;;;4996025;28;20495;-78
2024/04/05 02:33:07;;;;;;;14.17;3.63;;;;;;;;;;4995580;28;20420;-78
2024/04/05 02:35:33;;;;;;;15.30;2.70;;;;;;;;;;4996295;28;20462;-78
2024/04/05 02:37:59;;;;;;;18.20;2.93;;;;;;;;;;4996340;28;20439;-79
2024/04/05 02:40:25;;;;;;;20.23;3.60;;;;;;;;;;4995129;28;20436;-78
2024/04/05 02:42:51;;;;;;;15.60;3.20;;;;;;;;;;4996278;28;20789;-78
2024/04/05 02:45:17;;;;;;;15.80;4.27;;;;;;;;;;4996015;28;20425;-79
2024/04/05 02:47:43;;;;;;;17.33;5.07;;;;;;;;;;4995866;28;20188;-79
2024/04/05 02:50:09;;;;;;;16.37;3.87;;;;;;;;;;4996158;28;20420;-78
2024/04/05 02:52:35;;;;;;;19.13;4.37;;;;;;;;;;4995979;28;20631;-78
2024/04/05 02:55:01;;;;;;;12.77;3.13;;;;;;;;;;4995942;28;20277;-78
2024/04/05 02:57:27;;;;;;;15.13;4.20;;;;;;;;;;4995471;28;20528;-78
2024/04/05 02:59:52;;;;;;;14.00;4.30;;;;;;;;;;4996062;28;20515;-78
2024/04/05 03:02:18;;;;;;;11.23;3.93;;;;;;;;;;4994222;28;21038;-79
2024/04/05 03:04:44;;;;;;;21.20;4.60;;;;;;;;;;4995895;28;20428;-78
2024/04/05 03:07:10;;;;;;;20.83;3.90;;;;;;;;;;4995929;28;20590;-78
2024/04/05 03:09:36;;;;;;;13.30;3.40;;;;;;;;;;4995836;28;20451;-78
2024/04/05 03:12:03;;;;;;;18.87;3.63;;;;;;;;;;4995766;28;20263;-78
2024/04/05 03:14:29;;;;;;;19.17;4.50;;;;;;;;;;4995803;28;20483;-78
2024/04/05 03:16:55;;;;;;;26.93;3.23;;;;;;;;;;4994068;28;20424;-78
2024/04/05 03:19:21;;;;;;;14.60;2.43;;;;;;;;;;4995463;28;20425;-78
2024/04/05 03:21:46;;;;;;;15.43;3.50;;;;;;;;;;4995209;28;20416;-77
2024/04/05 03:24:12;;;;;;;20.03;2.57;;;;;;;;;;4995538;28;20220;-77
2024/04/05 03:26:39;;;;;;;20.80;4.33;;;;;;;;;;4995551;28;20412;-77
2024/04/05 03:29:06;;;;;;;19.00;5.10;;;;;;;;;;4995398;28;20172;-78
2024/04/05 03:31:32;;;;;;;10.77;3.20;;;;;;;;;;4994955;28;20428;-77
2024/04/05 03:33:58;;;;;;;19.73;3.97;;;;;;;;;;4995370;28;20413;-77
2024/04/05 03:36:24;;;;;;;19.43;2.60;;;;;;;;;;4995327;28;20454;-77
2024/04/05 03:38:50;;;;;;;16.13;3.73;;;;;;;;;;4995233;28;20456;-77
2024/04/05 03:41:16;;;;;;;24.03;3.90;;;;;;;;;;4993985;28;20411;-77
2024/04/05 03:43:42;;;;;;;14.67;3.60;;;;;;;;;;4993822;28;20475;-77
2024/04/05 03:46:08;;;;;;;15.40;3.73;;;;;;;;;;4994509;28;20513;-77
2024/04/05 03:48:34;;;;;;;19.80;3.47;;;;;;;;;;4995076;28;20427;-77
2024/04/05 03:51:00;;;;;;;18.90;4.37;;;;;;;;;;4995027;28;20432;-78
2024/04/05 03:53:26;;;;;;;20.10;3.80;;;;;;;;;;4994922;28;20595;-78
2024/04/05 03:55:55;;;;;;;16.20;4.23;;;;;;;;;;4994880;28;20510;-77
2024/04/05 03:58:21;;;;;;;18.47;3.20;;;;;;;;;;4993614;28;20223;-77
2024/04/05 04:00:55;;;;;;;12.13;3.07;;;;;;;;;;4994508;28;20487;-76
2024/04/05 04:03:21;;;;;;;20.03;3.77;;;;;;;;;;4994701;28;20470;-78
2024/04/05 04:05:47;;;;;;;17.03;3.30;;;;;;;;;;4993502;28;20420;-77
2024/04/05 04:08:13;;;;;;;17.10;3.07;;;;;;;;;;4994791;28;20473;-79
2024/04/05 04:10:40;;;;;;;15.20;3.80;;;;;;;;;;4994599;28;20413;-77
2024/04/05 04:13:06;;;;;;;23.70;3.93;;;;;;;;;;4994716;28;20447;-78
2024/04/05 04:15:33;;;;;;;23.33;4.00;;;;;;;;;;4994298;28;20407;-77
2024/04/05 04:17:58;;;;;;;18.00;3.40;;;;;;;;;;4994531;28;20429;-77
2024/04/05 04:20:25;;;;;;;15.87;3.40;;;;;;;;;;4994538;28;20752;-77
2024/04/05 04:22:51;;;;;;;25.90;3.23;;;;;;;;;;4994350;28;20251;-78
2024/04/05 04:25:17;;;;;;;14.20;3.33;;;;;;;;;;4994487;28;20459;-78
2024/04/05 04:27:43;;;;;;;28.37;3.70;;;;;;;;;;4994393;28;20435;-78
2024/04/05 04:30:09;;;;;;;17.70;4.70;;;;;;;;;;4994355;28;20180;-77
2024/04/05 04:32:35;;;;;;;15.63;3.23;;;;;;;;;;4993141;28;20408;-77
2024/04/05 04:35:02;;;;;;;14.73;2.53;;;;;;;;;;4994285;28;20431;-77
2024/04/05 04:37:28;;;;;;;12.10;3.23;;;;;;;;;;4994209;28;20767;-77
2024/04/05 04:39:54;;;;;;;22.87;4.53;;;;;;;;;;4994037;28;20416;-77
2024/04/05 04:42:20;;;;;;;17.43;3.23;;;;;;;;;;4994115;28;20410;-78
2024/04/05 04:44:46;;;;;;;21.00;5.20;;;;;;;;;;4994105;28;20544;-77
2024/04/05 04:47:12;;;;;;;20.73;3.30;;;;;;;;;;4992432;28;20458;-77
2024/04/05 04:49:38;;;;;;;16.20;2.53;;;;;;;;;;4994091;28;20588;-77
2024/04/05 04:52:05;;;;;;;18.97;3.67;;;;;;;;;;4993997;28;20169;-77
2024/04/05 04:54:31;;;;;;;22.80;3.97;;;;;;;;;;4993944;28;20407;-77
2024/04/05 04:56:56;;;;;;;16.27;3.47;;;;;;;;;;4992650;28;20435;-77
2024/04/05 04:59:28;;;;;;;13.13;2.73;;;;;;;;;;4992608;28;21189;-78
2024/04/05 05:01:55;;;;;;;20.30;4.60;;;;;;;;;;4992179;28;20179;-78
2024/04/05 05:04:21;;;;;;;23.17;5.27;;;;;;;;;;4993586;28;20566;-77
2024/04/05 05:06:46;;;;;;;23.50;5.10;;;;;;;;;;4993861;28;20444;-78
2024/04/05 05:09:15;;;;;;;19.80;3.20;;;;;;;;;;4992553;28;20173;-78
2024/04/05 05:11:41;;;;;;;20.03;5.37;;;;;;;;;;4993746;28;20511;-78
2024/04/05 05:14:07;;;;;;;12.97;2.53;;;;;;;;;;4993756;28;20515;-78
2024/04/05 05:16:33;;;;;;;12.80;2.80;;;;;;;;;;4992144;28;20183;-78
2024/04/05 05:18:59;;;;;;;13.70;2.90;;;;;;;;;;4992329;28;20180;-78
2024/04/05 05:21:25;;;;;;;16.80;3.00;;;;;;;;;;4992276;28;20433;-78
2024/04/05 05:23:51;;;;;;;15.43;3.30;;;;;;;;;;4993379;28;21005;-78
2024/04/05 05:26:16;;;;;;;25.90;4.60;;;;;;;;;;4993625;28;20418;-78
2024/04/05 05:28:43;;;;;;;15.40;3.83;;;;;;;;;;4993649;28;20420;-78
2024/04/05 05:31:09;;;;;;;21.00;3.70;;;;;;;;;;4993314;28;20569;-78
2024/04/05 05:33:35;;;;;;;20.43;5.37;;;;;;;;;;4993519;28;20472;-77
2024/04/05 05:36:01;;;;;;;20.97;3.80;;;;;;;;;;4976243;28;20455;-78
2024/04/05 05:38:27;;;;;;;16.50;2.50;;;;;;;;;;4993579;28;20339;-80
2024/04/05 05:40:53;;;;;;;15.90;4.13;;;;;;;;;;4993677;28;20507;-79
2024/04/05 05:43:19;;;;;;;12.30;3.50;;;;;;;;;;4994611;28;20474;-78
2024/04/05 05:45:44;;;;;;;17.37;3.57;;;;;;;;;;4996953;28;20213;-78
2024/04/05 05:48:10;;;;;;;16.03;3.57;;;;;;;;;;4997248;28;20799;-79
2024/04/05 05:50:37;;;;;;;17.80;2.73;;;;;;;;;;4996000;28;20425;-78
2024/04/05 05:53:03;;;;;;;25.57;4.60;;;;;;;;;;4997007;28;20928;-78
2024/04/05 05:55:28;;;;;;;18.67;3.27;;;;;;;;;;4997573;28;20416;-79
2024/04/05 05:57:57;;;;;;;13.10;3.53;;;;;;;;;;4997568;28;20421;-78
2024/04/05 06:00:22;;;;;;;16.10;3.90;;;;;;;;;;4996960;28;20228;-78
2024/04/05 06:02:48;;;;;;;22.17;3.80;;;;;;;;;;4997363;28;20480;-80
2024/04/05 06:05:15;;;;;;;16.97;4.50;;;;;;;;;;4997205;28;20417;-82
2024/04/05 06:07:41;;;;;;;18.73;2.73;;;;;;;;;;4997349;28;20410;-79
2024/04/05 06:10:07;;;;;;;10.43;2.77;;;;;;;;;;4995880;28;20432;-78
2024/04/05 06:12:38;;;;;;;19.43;3.57;;;;;;;;;;4997037;28;20502;-80
2024/04/05 06:15:05;;;;;;;13.57;2.40;;;;;;;;;;4996874;28;20417;-78
2024/04/05 06:17:35;;;;;;;17.33;4.00;;;;;;;;;;4996663;28;20409;-77
2024/04/05 06:20:01;;;;;;;18.20;3.17;;;;;;;;;;4996797;28;20456;-78
2024/04/05 06:22:27;;;;;;;11.63;3.07;;;;;;;;;;4996853;28;20954;-79
2024/04/05 06:24:53;;;;;;;18.27;3.63;;;;;;;;;;4996769;28;20429;-78
2024/04/05 06:27:20;;;;;;;15.07;3.80;;;;;;;;;;4996433;28;20940;-85
2024/04/05 06:29:52;;;;;;;12.03;3.17;;;;;;;;;;4996754;28;20780;-79
2024/04/05 06:32:18;;;;;;;16.77;4.10;;;;;;;;;;4996266;28;20512;-78
2024/04/05 06:34:45;;;;;;;13.90;4.50;;;;;;;;;;4995137;28;20461;-78
2024/04/05 06:37:11;;;;;;;13.53;3.10;;;;;;;;;;4996466;28;20402;-77
2024/04/05 06:39:38;;;;;;;11.00;3.00;;;;;;;;;;4996361;28;20923;-78
2024/04/05 06:42:04;;;;;;;13.40;3.00;;;;;;;;;;4996280;28;20417;-78
2024/04/05 06:44:39;;;;;;;15.60;2.67;;;;;;;;;;4996294;28;20482;-78
2024/04/05 06:47:05;;;;;;;11.63;2.50;;;;;;;;;;4995702;28;20472;-78
2024/04/05 06:49:32;;;;;;;15.23;3.17;;;;;;;;;;4996269;28;20818;-77
2024/04/05 06:51:58;;;;;;;16.30;3.43;;;;;;;;;;4996312;28;20483;-78
2024/04/05 06:54:24;;;;;;;14.70;3.17;;;;;;;;;;4996140;28;20430;-76
2024/04/05 06:56:50;;;;;;;14.77;2.77;;;;;;;;;;4995881;28;20456;-77
2024/04/05 06:59:16;;;;;;;14.00;2.00;;;;;;;;;;4996795;28;20250;-79
2024/04/05 07:01:42;;;;;;;16.70;3.20;;;;;;;;;;4995748;28;20469;-78
2024/04/05 07:04:08;;;;;;;17.37;3.00;;;;;;;;;;4996037;28;20998;-77
2024/04/05 07:06:33;;;;;;;19.37;4.53;;;;;;;;;;4994380;28;20202;-78
2024/04/05 07:09:02;;;;;;;11.07;3.00;;;;;;;;;;4995766;28;20455;-78
2024/04/05 07:11:28;;;;;;;18.67;4.30;;;;;;;;;;4995681;28;20641;-78
2024/04/05 07:13:54;;;;;;;12.30;2.73;;;;;;;;;;4995752;28;20425;-77
2024/04/05 07:16:21;;;;;;;13.23;3.17;;;;;;;;;;4995280;28;20185;-77
2024/04/05 07:18:47;;;;;;;12.63;3.23;;;;;;;;;;4995514;28;20678;-77
2024/04/05 07:21:14;;;;;;;14.10;2.90;;;;;;;;;;4995732;28;20418;-77
2024/04/05 07:23:40;;;;;;;16.63;2.80;;;;;;;;;;4995463;28;20473;-77
2024/04/05 07:26:09;;;;;;;16.57;2.80;;;;;;;;;;4995452;28;20771;-77
2024/04/05 07:28:35;;;;;;;18.07;3.93;;;;;;;;;;4995354;28;20171;-77
2024/04/05 07:31:01;;;;;;;16.97;3.40;;;;;;;;;;4994970;28;20422;-77
2024/04/05 07:33:27;;;;;;;15.00;3.90;;;;;;;;;;4995377;28;20413;-77
2024/04/05 07:35:55;;;;;;;16.20;3.23;;;;;;;;;;4993987;28;20174;-77
2024/04/05 07:38:21;;;;;;;14.20;2.90;;;;;;;;;;4995221;28;20415;-77
2024/04/05 07:40:48;;;;;;;15.37;3.27;;;;;;;;;;4993988;28;20415;-77
2024/04/05 07:43:14;;;;;;;15.90;3.80;;;;;;;;;;4994908;28;20478;-77
2024/04/05 07:45:40;;;;;;;11.13;3.43;;;;;;;;;;4994305;28;20447;-77
2024/04/05 07:48:06;;;;;;;11.60;2.90;;;;;;;;;;4994954;28;20176;-76
2024/04/05 07:50:32;;;;;;;14.53;3.60;;;;;;;;;;4995024;28;20434;-77
2024/04/05 07:53:00;;;;;;;17.77;2.50;;;;;;;;;;4995011;28;20892;-77
2024/04/05 07:55:25;;;;;;;14.87;2.70;;;;;;;;;;4994947;28;20171;-79
2024/04/05 07:57:53;;;;;;;10.57;2.00;;;;;;;;;;4994825;28;20554;-78
2024/04/05 08:00:20;;;;;;;14.10;3.83;;;;;;;;;;4994500;28;20247;-77
2024/04/05 08:02:52;;;;;;;6.67;2.00;;;;;;;;;;4994573;28;20470;-77
2024/04/05 08:05:19;;;;;;;14.20;2.23;;;;;;;;;;4993500;28;20442;-78
2024/04/05 08:07:45;;;;;;;14.77;3.30;;;;;;;;;;4994552;28;20895;-77
2024/04/05 08:10:11;;;;;;;9.03;2.10;;;;;;;;;;4994682;28;20489;-78
2024/04/05 08:12:37;;;;;;;9.70;3.23;;;;;;;;;;4994368;28;20450;-77
2024/04/05 08:15:03;;;;;;;9.47;3.30;;;;;;;;;;4994161;28;20422;-78
2024/04/05 08:17:29;;;;;;;14.53;2.30;;;;;;;;;;4994553;28;20454;-78
2024/04/05 08:19:55;;;;;;;7.20;1.73;;;;;;;;;;4994497;28;20416;-77
2024/04/05 08:22:21;;;;;;;12.60;2.80;;;;;;;;;;4994247;28;20426;-79
2024/04/05 08:24:48;;;;;;;9.23;2.30;;;;;;;;;;4994417;28;20522;-78
2024/04/05 08:27:14;;;;;;;14.13;2.97;;;;;;;;;;4994346;28;20413;-78
2024/04/05 08:29:40;;;;;;;16.47;2.93;;;;;;;;;;4994365;28;20434;-78
2024/04/05 08:32:06;;;;;;;14.10;2.77;;;;;;;;;;4993989;28;20475;-78
2024/04/05 08:34:32;;;;;;;12.77;2.60;;;;;;;;;;4994249;28;20443;-80
2024/04/05 08:36:59;;;;;;;17.27;3.60;;;;;;;;;;4994173;28;20458;-78
2024/04/05 08:39:25;;;;;;;7.87;1.33;;;;;;;;;;4994243;28;20885;-81
2024/04/05 08:41:51;;;;;;;8.97;1.90;;;;;;;;;;4994172;28;20444;-77
2024/04/05 08:44:17;;;;;;;15.77;4.00;;;;;;;;;;4994042;28;20305;-78
2024/04/05 08:46:44;;;;;;;11.40;2.23;;;;;;;;;;4993540;28;20469;-81
2024/04/05 08:49:14;;;;;;;10.20;1.50;;;;;;;;;;4994009;28;20780;-78
2024/04/05 08:51:40;;;;;;;13.10;2.97;;;;;;;;;;4994012;28;20412;-78
2024/04/05 08:54:07;;;;;;;7.93;3.03;;;;;;;;;;4994056;28;20424;-81
2024/04/05 08:56:34;;;;;;;9.20;1.93;;;;;;;;;;4994076;28;20506;-79
2024/04/05 08:59:01;;;;;;;11.20;2.63;;;;;;;;;;4993910;28;20477;-79
2024/04/05 09:01:27;;;;;;;9.83;3.00;;;;;;;;;;4993480;28;20444;-79
2024/04/05 09:03:53;;;;;;;12.70;2.07;;;;;;;;;;4993634;28;20505;-78
2024/04/05 09:06:20;;;;;;;11.60;2.47;;;;;;;;;;4993667;28;20425;-78
2024/04/05 09:08:48;;;;;;;11.10;2.10;;;;;;;;;;4993969;28;20424;-76
2024/04/05 09:11:19;;;;;;;11.53;2.80;;;;;;;;;;4993821;28;20917;-77
2024/04/05 09:13:54;;;;;;;9.63;2.60;;;;;;;;;;4993636;28;20410;-78
2024/04/05 09:16:24;;;;;;;8.87;1.77;;;;;;;;;;4993442;28;20414;-74
2024/04/05 09:18:50;;;;;;;10.20;1.87;;;;;;;;;;4993098;28;20521;-76
2024/04/05 09:21:17;;;;;;;12.33;2.63;;;;;;;;;;4993622;28;20778;-77
2024/04/05 09:23:44;;;;;;;11.07;2.73;;;;;;;;;;4993562;28;20836;-76
2024/04/05 09:26:10;;;;;;;10.67;2.30;;;;;;;;;;4993613;28;20450;-77
2024/04/05 09:28:36;;;;;;;8.73;2.30;;;;;;;;;;4993635;28;20422;-77
2024/04/05 09:31:03;;;;;;;8.83;2.07;;;;;;;;;;4993300;28;20193;-77
2024/04/05 09:33:29;;;;;;;16.53;3.00;;;;;;;;;;4992232;28;20437;-79
2024/04/05 09:35:56;;;;;;;7.90;1.97;;;;;;;;;;4992295;28;20472;-78
2024/04/05 09:38:24;;;;;;;7.30;1.67;;;;;;;;;;4993345;28;20171;-78
2024/04/05 09:40:52;;;;;;;8.83;2.47;;;;;;;;;;4993553;28;20502;-80
2024/04/05 09:43:20;;;;;;;5.40;1.70;;;;;;;;;;4993443;28;20557;-77
2024/04/05 09:45:49;;;;;;;8.93;1.50;;;;;;;;;;4993008;28;20483;-78
2024/04/05 09:48:17;;;;;;;6.90;1.97;;;;;;;;;;4993380;28;20427;-78
2024/04/05 09:50:44;;;;;;;7.60;1.80;;;;;;;;;;4993466;28;20464;-78
2024/04/05 09:53:10;;;;;;;10.50;2.43;;;;;;;;;;4993463;28;21023;-78
2024/04/05 09:55:38;;;;;;;6.90;2.17;;;;;;;;;;4993448;28;20964;-78
2024/04/05 09:58:05;;;;;;;5.60;1.90;;;;;;;;;;4992071;28;20426;-79
2024/04/05 10:00:32;;;;;;;10.50;2.50;;;;;;;;;;4993079;28;20473;-79
2024/04/05 10:02:59;;;;;;;7.17;2.00;;;;;;;;;;4993262;28;20458;-80
2024/04/05 10:05:28;;;;;;;5.40;1.23;;;;;;;;;;4993069;28;20496;-85
2024/04/05 10:07:55;;;;;;;9.03;2.13;;;;;;;;;;4993494;28;20413;-85
2024/04/05 10:10:32;;;;;;;9.77;2.27;;;;;;;;;;4993385;28;20412;-81
2024/04/05 10:13:09;;;;;;;6.60;1.50;;;;;;;;;;4993291;28;20840;-82
2024/04/05 10:15:35;;;;;;;11.10;2.20;;;;;;;;;;4993093;28;20743;-78
2024/04/05 10:18:01;;;;;;;6.87;1.90;;;;;;;;;;4993123;28;20438;-81
2024/04/05 10:20:29;;;;;;;5.07;1.10;;;;;;;;;;4993277;28;20411;-81
2024/04/05 10:22:58;;;;;;;7.60;1.67;;;;;;;;;;4993168;28;20570;-82
2024/04/05 10:25:25;;;;;;;5.20;1.37;;;;;;;;;;4993271;28;20518;-81
2024/04/05 10:27:55;;;;;;;7.93;2.30;;;;;;;;;;4993231;28;20856;-77
2024/04/05 10:30:22;;;;;;;7.30;2.10;;;;;;;;;;4993805;28;20414;-83
2024/04/05 10:32:56;;;;;;;9.30;2.33;;;;;;;;;;4996378;28;20764;-78
2024/04/05 10:35:22;;;;;;;7.17;2.43;;;;;;;;;;4996608;28;20922;-80
2024/04/05 10:37:56;;;;;;;12.17;2.50;;;;;;;;;;4996552;28;20411;-78
2024/04/05 10:40:22;;;;;;;6.73;1.93;;;;;;;;;;4996503;28;20498;-79
2024/04/05 10:42:48;;;;;;;8.93;2.50;;;;;;;;;;4996196;28;20466;-88
2024/04/05 10:45:18;;;;;;;8.50;1.53;;;;;;;;;;4995091;28;20864;-79
2024/04/05 10:47:52;;;;;;;5.17;1.50;;;;;;;;;;4996183;28;20429;-81
2024/04/05 10:50:19;;;;;;;8.00;1.70;;;;;;;;;;4996209;28;20465;-80
2024/04/05 10:52:48;;;;;;;7.47;2.27;;;;;;;;;;4995991;28;20426;-77
2024/04/05 10:55:14;;;;;;;6.17;2.00;;;;;;;;;;4996080;28;20863;-79
2024/04/05 10:57:40;;;;;;;6.50;1.47;;;;;;;;;;4996051;28;20513;-78
2024/04/05 11:00:11;;;;;;;13.60;2.70;;;;;;;;;;4995857;28;20982;-81
2024/04/05 11:02:38;;;;;;;8.03;2.07;;;;;;;;;;4996035;28;20410;-79
2024/04/05 11:05:06;;;;;;;8.07;3.03;;;;;;;;;;4995919;28;20510;-80
2024/04/05 11:07:33;;;;;;;6.27;2.30;;;;;;;;;;4996243;28;21017;-78
2024/04/05 11:09:58;;;;;;;8.07;2.10;;;;;;;;;;4995864;28;20445;-82
2024/04/05 11:12:24;;;;;;;6.67;1.70;;;;;;;;;;4995667;28;20414;-80
2024/04/05 11:14:50;;;;;;;6.23;2.30;;;;;;;;;;4995441;28;20205;-79
2024/04/05 11:17:16;;;;;;;5.50;1.53;;;;;;;;;;4995758;28;20413;-79
2024/04/05 11:19:42;;;;;;;4.80;1.63;;;;;;;;;;4994438;28;20195;-78
2024/04/05 11:22:08;;;;;;;3.20;0.97;;;;;;;;;;4995599;28;20418;-79
2024/04/05 11:24:34;;;;;;;4.87;1.43;;;;;;;;;;4995372;28;20711;-84
2024/04/05 11:27:00;;;;;;;5.53;1.43;;;;;;;;;;4995481;28;20493;-79
2024/04/05 11:29:26;;;;;;;6.27;1.30;;;;;;;;;;4995159;28;20420;-79
2024/04/05 11:31:52;;;;;;;3.77;1.60;;;;;;;;;;4995295;28;20532;-78
2024/04/05 11:34:18;;;;;;;9.13;2.30;;;;;;;;;;4994988;28;20421;-78
2024/04/05 11:36:44;;;;;;;7.30;2.20;;;;;;;;;;4995295;28;20421;-78
2024/04/05 11:39:14;;;;;;;8.63;1.73;;;;;;;;;;4994426;28;20181;-78
2024/04/05 11:41:40;;;;;;;8.60;1.23;;;;;;;;;;4994389;28;20193;-80
2024/04/05 11:44:06;;;;;;;9.17;1.73;;;;;;;;;;4994082;28;20476;-79
2024/04/05 11:46:32;;;;;;;6.67;1.37;;;;;;;;;;4991465;28;20620;-78
2024/04/05 11:48:57;;;;;;;7.17;1.50;;;;;;;;;;4994607;28;20987;-79
2024/04/05 11:51:23;;;;;;;9.90;1.70;;;;;;;;;;4993702;28;20449;-79
2024/04/05 11:53:49;;;;;;;4.33;1.00;;;;;;;;;;4995201;28;20217;-84
2024/04/05 11:56:15;;;;;;;5.23;0.70;;;;;;;;;;4995080;28;20269;-81
2024/04/05 11:58:41;;;;;;;4.47;0.93;;;;;;;;;;4994408;28;20641;-79
2024/04/05 12:01:07;;;;;;;7.07;1.30;;;;;;;;;;4992926;28;20253;-78
2024/04/05 12:03:33;;;;;;;6.17;0.83;;;;;;;;;;4994513;28;20212;-83
2024/04/05 12:06:00;;;;;;;4.00;0.63;;;;;;;;;;4991635;28;20524;-79
2024/04/05 12:08:26;;;;;;;3.97;1.13;;;;;;;;;;4994615;28;20439;-79
2024/04/05 12:10:52;;;;;;;5.07;1.33;;;;;;;;;;4994423;28;20418;-80
2024/04/05 12:13:18;;;;;;;2.70;1.10;;;;;;;;;;4993998;28;20421;-82
2024/04/05 12:15:44;;;;;;;3.50;1.30;;;;;;;;;;4994424;28;20484;-79
2024/04/05 12:18:11;;;;;;;3.70;0.90;;;;;;;;;;4994785;28;20621;-86
2024/04/05 12:20:37;;;;;;;2.43;1.00;;;;;;;;;;4994796;28;20541;-78
2024/04/05 12:23:03;;;;;;;7.73;1.70;;;;;;;;;;4994441;28;20472;-85
2024/04/05 12:25:29;;;;;;;5.83;1.37;;;;;;;;;;4994710;28;20234;-79
2024/04/05 12:27:55;;;;;;;5.20;0.80;;;;;;;;;;4994493;28;20813;-81
2024/04/05 12:30:21;;;;;;;3.40;0.97;;;;;;;;;;4994185;28;20179;-80
2024/04/05 12:32:47;;;;;;;7.27;1.57;;;;;;;;;;4994565;28;20432;-88
2024/04/05 12:35:13;;;;;;;2.20;0.77;;;;;;;;;;4993461;28;20777;-86
2024/04/05 12:37:39;;;;;;;4.97;1.50;;;;;;;;;;4994501;28;20453;-80
2024/04/05 12:40:14;;;;;;;7.27;1.03;;;;;;;;;;4994297;28;20838;-88
2024/04/05 12:42:40;;;;;;;5.23;1.37;;;;;;;;;;4993537;28;20913;-83
2024/04/05 12:45:08;;;;;;;2.57;0.90;;;;;;;;;;4993754;28;20438;-78
2024/04/05 12:47:35;;;;;;;9.43;0.80;;;;;;;;;;4994096;28;20443;-84
2024/04/05 12:50:00;;;;;;;5.27;1.13;;;;;;;;;;4994166;28;20483;-85
2024/04/05 12:52:26;;;;;;;3.40;0.67;;;;;;;;;;4993452;28;20520;-82
2024/04/05 12:54:52;;;;;;;8.33;1.90;;;;;;;;;;4994951;28;20522;-82
2024/04/05 12:57:19;;;;;;;3.10;1.50;;;;;;;;;;4994316;28;20704;-82
2024/04/05 12:59:45;;;;;;;5.83;1.50;;;;;;;;;;4993878;28;20185;-82
2024/04/05 13:02:11;;;;;;;3.70;1.30;;;;;;;;;;4994220;28;20409;-83
2024/04/05 13:04:37;;;;;;;7.10;1.27;;;;;;;;;;4992981;28;20752;-83
2024/04/05 13:07:03;;;;;;;7.07;1.70;;;;;;;;;;4994066;28;20178;-79
2024/04/05 13:09:29;;;;;;;5.30;0.97;;;;;;;;;;4994001;28;20484;-81
2024/04/05 13:11:55;;;;;;;5.03;1.37;;;;;;;;;;4994204;28;20408;-81
2024/04/05 13:14:24;;;;;;;4.80;1.23;;;;;;;;;;4993543;28;20420;-81
2024/04/05 13:16:54;;;;;;;3.60;0.70;;;;;;;;;;4994071;28;20181;-79
2024/04/05 13:19:20;;;;;;;3.00;0.90;;;;;;;;;;4994434;28;20412;-79
2024/04/05 13:21:46;;;;;;;4.60;0.90;;;;;;;;;;4993877;28;20427;-79
2024/04/05 13:24:13;;;;;;;1.90;0.47;;;;;;;;;;4993674;28;20219;-85
2024/04/05 13:26:39;;;;;;;3.50;1.27;;;;;;;;;;4993626;28;20545;-79
2024/04/05 13:29:04;;;;;;;4.13;0.97;;;;;;;;;;4993345;28;20415;-85
2024/04/05 13:31:30;;;;;;;4.30;1.40;;;;;;;;;;4994006;28;20415;-84
2024/04/05 13:33:56;;;;;;;2.87;0.80;;;;;;;;;;4993622;28;20418;-77
2024/04/05 13:36:23;;;;;;;2.90;1.63;;;;;;;;;;4993698;28;20749;-79
2024/04/05 13:38:51;;;;;;;5.50;1.03;;;;;;;;;;4993638;28;20859;-78
2024/04/05 13:41:17;;;;;;;5.13;1.37;;;;;;;;;;4993522;28;20441;-83
2024/04/05 13:43:43;;;;;;;4.30;1.03;;;;;;;;;;4993487;28;20569;-83
2024/04/05 13:46:17;;;;;;;5.53;1.43;;;;;;;;;;4991805;28;20245;-78
2024/04/05 13:48:43;;;;;;;2.90;0.93;;;;;;;;;;4993656;28;20417;-81
2024/04/05 13:51:10;;;;;;;4.03;1.90;;;;;;;;;;4993389;28;20501;-77
2024/04/05 13:53:37;;;;;;;4.00;1.10;;;;;;;;;;4993421;28;20481;-77
2024/04/05 13:56:04;;;;;;;2.57;0.77;;;;;;;;;;4993373;28;20465;-77
2024/04/05 13:58:30;;;;;;;2.43;1.03;;;;;;;;;;4993368;28;20941;-80
2024/04/05 14:00:56;;;;;;;3.60;1.10;;;;;;;;;;4992977;28;20903;-77
2024/04/05 14:03:26;;;;;;;6.00;0.97;;;;;;;;;;4993056;28;20465;-78
2024/04/05 14:05:52;;;;;;;2.67;0.50;;;;;;;;;;4996802;28;20429;-77
2024/04/05 14:08:19;;;;;;;5.70;1.30;;;;;;;;;;4996982;28;20810;-76
2024/04/05 14:10:46;;;;;;;3.53;0.57;;;;;;;;;;4996818;28;20759;-76
2024/04/05 14:13:12;;;;;;;3.70;0.70;;;;;;;;;;4996833;28;20409;-79
2024/04/05 14:15:38;;;;;;;1.90;0.60;;;;;;;;;;4996510;28;20921;-78
2024/04/05 14:18:05;;;;;;;5.40;1.83;;;;;;;;;;4996731;28;20413;-77
2024/04/05 14:20:36;;;;;;;5.40;1.23;;;;;;;;;;4996933;28;20919;-86
2024/04/05 14:23:02;;;;;;;2.80;1.00;;;;;;;;;;4996939;28;20481;-83
2024/04/05 14:25:28;;;;;;;6.43;1.33;;;;;;;;;;4995567;28;20424;-83
2024/04/05 14:27:55;;;;;;;2.80;1.07;;;;;;;;;;4995260;28;20524;-77
2024/04/05 14:30:22;;;;;;;3.37;1.10;;;;;;;;;;4995370;28;20183;-82
2024/04/05 14:32:48;;;;;;;6.00;1.80;;;;;;;;;;4996610;28;20437;-86